sensor_id;sensor_type;location;lat;lon;timestamp;P1;durP1;ratioP1;P2;durP2;ratioP2
72639;SDS011;60683;51.730;8.762;2023-04-24T00:02:23;1.27;;;0.70;;
72639;SDS011;60683;51.730;8.762;2023-04-24T00:04:51;0.60;;;0.30;;
72639;SDS011;60683;51.730;8.762;2023-04-24T00:07:20;1.27;;;0.60;;
72639;SDS011;60683;51.730;8.762;2023-04-24T00:09:48;0.68;;;0.35;;
72639;SDS011;60683;51.730;8.762;2023-04-24T00:12:16;1.70;;;0.68;;
72639;SDS011;60683;51.730;8.762;2023-04-24T00:14:43;1.55;;;0.50;;
72639;SDS011;60683;51.730;8.762;2023-04-24T00:17:11;2.28;;;0.50;;
72639;SDS011;60683;51.730;8.762;2023-04-24T00:19:38;0.98;;;0.35;;
72639;SDS011;60683;51.730;8.762;2023-04-24T00:22:06;0.73;;;0.45;;
72639;SDS011;60683;51.730;8.762;2023-04-24T00:24:35;0.73;;;0.40;;
72639;SDS011;60683;51.730;8.762;2023-04-24T00:27:02;0.88;;;0.40;;
72639;SDS011;60683;51.730;8.762;2023-04-24T00:29:30;1.00;;;0.50;;
72639;SDS011;60683;51.730;8.762;2023-04-24T00:31:57;1.17;;;0.40;;
72639;SDS011;60683;51.730;8.762;2023-04-24T00:34:25;0.63;;;0.35;;
72639;SDS011;60683;51.730;8.762;2023-04-24T00:36:52;0.82;;;0.40;;
72639;SDS011;60683;51.730;8.762;2023-04-24T00:39:21;1.08;;;0.50;;
72639;SDS011;60683;51.730;8.762;2023-04-24T00:41:50;1.77;;;0.60;;
72639;SDS011;60683;51.730;8.762;2023-04-24T00:44:18;0.80;;;0.40;;
72639;SDS011;60683;51.730;8.762;2023-04-24T00:46:46;0.77;;;0.38;;
72639;SDS011;60683;51.730;8.762;2023-04-24T00:49:17;0.80;;;0.40;;
72639;SDS011;60683;51.730;8.762;2023-04-24T00:51:45;1.42;;;0.52;;
72639;SDS011;60683;51.730;8.762;2023-04-24T00:54:13;1.00;;;0.60;;
72639;SDS011;60683;51.730;8.762;2023-04-24T00:56:40;1.02;;;0.43;;
72639;SDS011;60683;51.730;8.762;2023-04-24T00:59:10;1.08;;;0.45;;
72639;SDS011;60683;51.730;8.762;2023-04-24T01:01:38;1.45;;;0.60;;
72639;SDS011;60683;51.730;8.762;2023-04-24T01:04:08;1.55;;;0.40;;
72639;SDS011;60683;51.730;8.762;2023-04-24T01:06:36;0.30;;;0.20;;
72639;SDS011;60683;51.730;8.762;2023-04-24T01:09:06;0.68;;;0.40;;
72639;SDS011;60683;51.730;8.762;2023-04-24T01:11:34;1.02;;;0.40;;
72639;SDS011;60683;51.730;8.762;2023-04-24T01:14:02;0.32;;;0.28;;
72639;SDS011;60683;51.730;8.762;2023-04-24T01:16:31;0.50;;;0.30;;
72639;SDS011;60683;51.730;8.762;2023-04-24T01:18:59;1.58;;;0.40;;
72639;SDS011;60683;51.730;8.762;2023-04-24T01:21:26;0.95;;;0.50;;
72639;SDS011;60683;51.730;8.762;2023-04-24T01:23:56;1.02;;;0.43;;
72639;SDS011;60683;51.730;8.762;2023-04-24T01:26:23;0.55;;;0.30;;
72639;SDS011;60683;51.730;8.762;2023-04-24T01:28:51;1.52;;;0.40;;
72639;SDS011;60683;51.730;8.762;2023-04-24T01:31:19;0.60;;;0.30;;
72639;SDS011;60683;51.730;8.762;2023-04-24T01:33:47;0.63;;;0.50;;
72639;SDS011;60683;51.730;8.762;2023-04-24T01:36:14;1.52;;;0.47;;
72639;SDS011;60683;51.730;8.762;2023-04-24T01:38:44;0.30;;;0.30;;
72639;SDS011;60683;51.730;8.762;2023-04-24T01:41:12;0.57;;;0.35;;
72639;SDS011;60683;51.730;8.762;2023-04-24T01:43:40;1.05;;;0.40;;
72639;SDS011;60683;51.730;8.762;2023-04-24T01:46:07;1.25;;;0.45;;
72639;SDS011;60683;51.730;8.762;2023-04-24T01:48:35;0.55;;;0.30;;
72639;SDS011;60683;51.730;8.762;2023-04-24T01:51:02;1.00;;;0.40;;
72639;SDS011;60683;51.730;8.762;2023-04-24T01:53:30;1.13;;;0.50;;
72639;SDS011;60683;51.730;8.762;2023-04-24T01:55:57;2.17;;;0.38;;
72639;SDS011;60683;51.730;8.762;2023-04-24T01:58:26;0.60;;;0.32;;
72639;SDS011;60683;51.730;8.762;2023-04-24T02:00:55;0.55;;;0.30;;
72639;SDS011;60683;51.730;8.762;2023-04-24T02:03:23;1.58;;;0.60;;
72639;SDS011;60683;51.730;8.762;2023-04-24T02:05:51;1.58;;;0.63;;
72639;SDS011;60683;51.730;8.762;2023-04-24T02:08:19;1.08;;;0.45;;
72639;SDS011;60683;51.730;8.762;2023-04-24T02:10:46;1.05;;;0.45;;
72639;SDS011;60683;51.730;8.762;2023-04-24T02:13:14;1.33;;;0.40;;
72639;SDS011;60683;51.730;8.762;2023-04-24T02:15:43;1.55;;;0.60;;
72639;SDS011;60683;51.730;8.762;2023-04-24T02:18:11;1.00;;;0.40;;
72639;SDS011;60683;51.730;8.762;2023-04-24T02:20:38;1.70;;;0.40;;
72639;SDS011;60683;51.730;8.762;2023-04-24T02:23:06;1.27;;;0.50;;
72639;SDS011;60683;51.730;8.762;2023-04-24T02:25:33;0.95;;;0.45;;
72639;SDS011;60683;51.730;8.762;2023-04-24T02:28:01;1.73;;;0.55;;
72639;SDS011;60683;51.730;8.762;2023-04-24T02:30:29;0.70;;;0.40;;
72639;SDS011;60683;51.730;8.762;2023-04-24T02:32:58;0.65;;;0.32;;
72639;SDS011;60683;51.730;8.762;2023-04-24T02:35:25;1.05;;;0.30;;
72639;SDS011;60683;51.730;8.762;2023-04-24T02:37:53;1.85;;;0.50;;
72639;SDS011;60683;51.730;8.762;2023-04-24T02:40:20;1.15;;;0.40;;
72639;SDS011;60683;51.730;8.762;2023-04-24T02:42:48;1.17;;;0.50;;
72639;SDS011;60683;51.730;8.762;2023-04-24T02:45:15;1.63;;;0.60;;
72639;SDS011;60683;51.730;8.762;2023-04-24T02:47:43;0.43;;;0.30;;
72639;SDS011;60683;51.730;8.762;2023-04-24T02:50:12;1.08;;;0.43;;
72639;SDS011;60683;51.730;8.762;2023-04-24T02:52:40;0.95;;;0.38;;
72639;SDS011;60683;51.730;8.762;2023-04-24T02:55:07;1.05;;;0.50;;
72639;SDS011;60683;51.730;8.762;2023-04-24T02:57:35;0.85;;;0.40;;
72639;SDS011;60683;51.730;8.762;2023-04-24T03:00:02;2.28;;;0.75;;
72639;SDS011;60683;51.730;8.762;2023-04-24T03:02:33;2.38;;;0.50;;
72639;SDS011;60683;51.730;8.762;2023-04-24T03:05:00;4.00;;;0.57;;
72639;SDS011;60683;51.730;8.762;2023-04-24T03:07:29;0.70;;;0.43;;
72639;SDS011;60683;51.730;8.762;2023-04-24T03:09:57;1.13;;;0.60;;
72639;SDS011;60683;51.730;8.762;2023-04-24T03:12:25;1.33;;;0.50;;
72639;SDS011;60683;51.730;8.762;2023-04-24T03:14:52;0.55;;;0.30;;
72639;SDS011;60683;51.730;8.762;2023-04-24T03:17:20;1.85;;;0.30;;
72639;SDS011;60683;51.730;8.762;2023-04-24T03:19:47;1.00;;;0.50;;
72639;SDS011;60683;51.730;8.762;2023-04-24T03:22:15;1.55;;;0.60;;
72639;SDS011;60683;51.730;8.762;2023-04-24T03:24:44;1.33;;;0.60;;
72639;SDS011;60683;51.730;8.762;2023-04-24T03:27:11;1.00;;;0.40;;
72639;SDS011;60683;51.730;8.762;2023-04-24T03:29:38;0.90;;;0.50;;
72639;SDS011;60683;51.730;8.762;2023-04-24T03:32:06;1.67;;;0.57;;
72639;SDS011;60683;51.730;8.762;2023-04-24T03:34:33;0.85;;;0.45;;
72639;SDS011;60683;51.730;8.762;2023-04-24T03:37:01;1.20;;;0.50;;
72639;SDS011;60683;51.730;8.762;2023-04-24T03:39:28;0.52;;;0.40;;
72639;SDS011;60683;51.730;8.762;2023-04-24T03:41:57;1.15;;;0.40;;
72639;SDS011;60683;51.730;8.762;2023-04-24T03:44:24;2.90;;;0.60;;
72639;SDS011;60683;51.730;8.762;2023-04-24T03:46:54;2.03;;;0.50;;
72639;SDS011;60683;51.730;8.762;2023-04-24T03:49:21;2.80;;;0.70;;
72639;SDS011;60683;51.730;8.762;2023-04-24T03:51:49;1.27;;;0.50;;
72639;SDS011;60683;51.730;8.762;2023-04-24T03:54:17;1.02;;;0.50;;
72639;SDS011;60683;51.730;8.762;2023-04-24T03:56:44;1.38;;;0.60;;
72639;SDS011;60683;51.730;8.762;2023-04-24T03:59:13;1.50;;;0.50;;
72639;SDS011;60683;51.730;8.762;2023-04-24T04:01:41;2.10;;;0.75;;
72639;SDS011;60683;51.730;8.762;2023-04-24T04:04:08;2.53;;;0.50;;
72639;SDS011;60683;51.730;8.762;2023-04-24T04:06:36;1.00;;;0.47;;
72639;SDS011;60683;51.730;8.762;2023-04-24T04:09:03;2.30;;;0.70;;
72639;SDS011;60683;51.730;8.762;2023-04-24T04:11:31;0.82;;;0.50;;
72639;SDS011;60683;51.730;8.762;2023-04-24T04:13:58;2.00;;;0.60;;
72639;SDS011;60683;51.730;8.762;2023-04-24T04:16:28;0.70;;;0.47;;
72639;SDS011;60683;51.730;8.762;2023-04-24T04:18:55;2.45;;;0.90;;
72639;SDS011;60683;51.730;8.762;2023-04-24T04:21:23;0.93;;;0.52;;
72639;SDS011;60683;51.730;8.762;2023-04-24T04:23:50;2.20;;;0.90;;
72639;SDS011;60683;51.730;8.762;2023-04-24T04:26:18;2.75;;;1.48;;
72639;SDS011;60683;51.730;8.762;2023-04-24T04:28:47;1.92;;;0.90;;
72639;SDS011;60683;51.730;8.762;2023-04-24T04:31:15;2.47;;;1.00;;
72639;SDS011;60683;51.730;8.762;2023-04-24T04:33:43;1.90;;;0.90;;
72639;SDS011;60683;51.730;8.762;2023-04-24T04:36:11;2.67;;;1.30;;
72639;SDS011;60683;51.730;8.762;2023-04-24T04:38:39;3.25;;;1.33;;
72639;SDS011;60683;51.730;8.762;2023-04-24T04:41:06;3.08;;;1.40;;
72639;SDS011;60683;51.730;8.762;2023-04-24T04:43:34;1.33;;;0.60;;
72639;SDS011;60683;51.730;8.762;2023-04-24T04:46:02;3.17;;;1.42;;
72639;SDS011;60683;51.730;8.762;2023-04-24T04:48:30;2.20;;;1.05;;
72639;SDS011;60683;51.730;8.762;2023-04-24T04:51:00;3.58;;;1.08;;
72639;SDS011;60683;51.730;8.762;2023-04-24T04:53:27;3.15;;;1.23;;
72639;SDS011;60683;51.730;8.762;2023-04-24T04:55:55;2.03;;;0.80;;
72639;SDS011;60683;51.730;8.762;2023-04-24T04:58:22;2.65;;;1.27;;
72639;SDS011;60683;51.730;8.762;2023-04-24T05:00:50;2.58;;;1.20;;
72639;SDS011;60683;51.730;8.762;2023-04-24T05:03:18;3.30;;;1.30;;
72639;SDS011;60683;51.730;8.762;2023-04-24T05:05:45;3.22;;;1.23;;
72639;SDS011;60683;51.730;8.762;2023-04-24T05:08:14;2.00;;;1.00;;
72639;SDS011;60683;51.730;8.762;2023-04-24T05:10:42;2.80;;;1.58;;
72639;SDS011;60683;51.730;8.762;2023-04-24T05:13:09;3.58;;;1.60;;
72639;SDS011;60683;51.730;8.762;2023-04-24T05:15:37;3.70;;;1.88;;
72639;SDS011;60683;51.730;8.762;2023-04-24T05:18:04;4.28;;;2.28;;
72639;SDS011;60683;51.730;8.762;2023-04-24T05:20:32;4.97;;;2.42;;
72639;SDS011;60683;51.730;8.762;2023-04-24T05:22:59;4.70;;;2.42;;
72639;SDS011;60683;51.730;8.762;2023-04-24T05:25:29;6.32;;;2.80;;
72639;SDS011;60683;51.730;8.762;2023-04-24T05:27:57;5.28;;;2.63;;
72639;SDS011;60683;51.730;8.762;2023-04-24T05:30:25;3.72;;;1.92;;
72639;SDS011;60683;51.730;8.762;2023-04-24T05:32:52;4.35;;;2.10;;
72639;SDS011;60683;51.730;8.762;2023-04-24T05:35:20;4.95;;;3.00;;
72639;SDS011;60683;51.730;8.762;2023-04-24T05:37:47;3.72;;;2.15;;
72639;SDS011;60683;51.730;8.762;2023-04-24T05:40:15;6.40;;;3.53;;
72639;SDS011;60683;51.730;8.762;2023-04-24T05:42:44;5.90;;;2.53;;
72639;SDS011;60683;51.730;8.762;2023-04-24T05:45:12;7.03;;;3.13;;
72639;SDS011;60683;51.730;8.762;2023-04-24T05:47:42;6.95;;;3.90;;
72639;SDS011;60683;51.730;8.762;2023-04-24T05:50:11;6.10;;;2.80;;
72639;SDS011;60683;51.730;8.762;2023-04-24T05:52:38;7.47;;;3.58;;
72639;SDS011;60683;51.730;8.762;2023-04-24T05:55:06;10.30;;;3.67;;
72639;SDS011;60683;51.730;8.762;2023-04-24T05:57:34;5.53;;;2.65;;
72639;SDS011;60683;51.730;8.762;2023-04-24T06:00:03;6.30;;;2.83;;
72639;SDS011;60683;51.730;8.762;2023-04-24T06:02:32;6.03;;;3.20;;
72639;SDS011;60683;51.730;8.762;2023-04-24T06:04:59;6.80;;;3.05;;
72639;SDS011;60683;51.730;8.762;2023-04-24T06:07:27;6.57;;;2.85;;
72639;SDS011;60683;51.730;8.762;2023-04-24T06:09:55;7.28;;;2.80;;
72639;SDS011;60683;51.730;8.762;2023-04-24T06:12:22;7.32;;;3.47;;
72639;SDS011;60683;51.730;8.762;2023-04-24T06:14:50;5.45;;;3.00;;
72639;SDS011;60683;51.730;8.762;2023-04-24T06:17:19;4.68;;;1.90;;
72639;SDS011;60683;51.730;8.762;2023-04-24T06:19:46;5.85;;;1.73;;
72639;SDS011;60683;51.730;8.762;2023-04-24T06:22:14;6.47;;;3.20;;
72639;SDS011;60683;51.730;8.762;2023-04-24T06:24:41;6.35;;;2.67;;
72639;SDS011;60683;51.730;8.762;2023-04-24T06:27:09;5.85;;;2.78;;
72639;SDS011;60683;51.730;8.762;2023-04-24T06:29:37;6.28;;;3.17;;
72639;SDS011;60683;51.730;8.762;2023-04-24T06:32:04;5.85;;;3.08;;
72639;SDS011;60683;51.730;8.762;2023-04-24T06:34:33;5.65;;;3.15;;
72639;SDS011;60683;51.730;8.762;2023-04-24T06:37:01;4.85;;;2.92;;
72639;SDS011;60683;51.730;8.762;2023-04-24T06:39:29;5.50;;;2.85;;
72639;SDS011;60683;51.730;8.762;2023-04-24T06:41:57;4.45;;;2.65;;
72639;SDS011;60683;51.730;8.762;2023-04-24T06:44:25;7.43;;;2.95;;
72639;SDS011;60683;51.730;8.762;2023-04-24T06:46:52;4.80;;;2.53;;
72639;SDS011;60683;51.730;8.762;2023-04-24T06:49:20;4.88;;;2.13;;
72639;SDS011;60683;51.730;8.762;2023-04-24T06:51:49;5.00;;;2.63;;
72639;SDS011;60683;51.730;8.762;2023-04-24T06:54:16;5.22;;;2.83;;
72639;SDS011;60683;51.730;8.762;2023-04-24T06:56:44;7.90;;;3.00;;
72639;SDS011;60683;51.730;8.762;2023-04-24T06:59:13;6.50;;;3.42;;
72639;SDS011;60683;51.730;8.762;2023-04-24T07:01:41;4.82;;;2.78;;
72639;SDS011;60683;51.730;8.762;2023-04-24T07:04:08;6.65;;;2.10;;
72639;SDS011;60683;51.730;8.762;2023-04-24T07:06:35;4.25;;;3.22;;
72639;SDS011;60683;51.730;8.762;2023-04-24T07:09:04;4.18;;;2.20;;
72639;SDS011;60683;51.730;8.762;2023-04-24T07:11:35;3.97;;;1.80;;
72639;SDS011;60683;51.730;8.762;2023-04-24T07:14:04;5.18;;;3.00;;
72639;SDS011;60683;51.730;8.762;2023-04-24T07:16:31;4.40;;;1.98;;
72639;SDS011;60683;51.730;8.762;2023-04-24T07:18:59;5.53;;;2.88;;
72639;SDS011;60683;51.730;8.762;2023-04-24T07:21:26;6.47;;;3.03;;
72639;SDS011;60683;51.730;8.762;2023-04-24T07:23:54;4.30;;;2.20;;
72639;SDS011;60683;51.730;8.762;2023-04-24T07:26:23;4.60;;;1.90;;
72639;SDS011;60683;51.730;8.762;2023-04-24T07:28:50;5.90;;;2.88;;
72639;SDS011;60683;51.730;8.762;2023-04-24T07:31:18;4.40;;;2.35;;
72639;SDS011;60683;51.730;8.762;2023-04-24T07:33:45;4.00;;;2.15;;
72639;SDS011;60683;51.730;8.762;2023-04-24T07:36:12;4.43;;;2.17;;
72639;SDS011;60683;51.730;8.762;2023-04-24T07:38:44;4.03;;;1.88;;
72639;SDS011;60683;51.730;8.762;2023-04-24T07:41:12;5.07;;;2.10;;
72639;SDS011;60683;51.730;8.762;2023-04-24T07:43:41;3.30;;;1.67;;
72639;SDS011;60683;51.730;8.762;2023-04-24T07:46:09;2.95;;;1.52;;
72639;SDS011;60683;51.730;8.762;2023-04-24T07:48:36;4.72;;;2.03;;
72639;SDS011;60683;51.730;8.762;2023-04-24T07:51:04;4.15;;;2.28;;
72639;SDS011;60683;51.730;8.762;2023-04-24T07:53:31;5.75;;;2.25;;
72639;SDS011;60683;51.730;8.762;2023-04-24T07:55:59;5.30;;;2.08;;
72639;SDS011;60683;51.730;8.762;2023-04-24T07:58:26;4.32;;;1.60;;
72639;SDS011;60683;51.730;8.762;2023-04-24T08:00:55;5.30;;;1.80;;
72639;SDS011;60683;51.730;8.762;2023-04-24T08:03:22;3.20;;;1.48;;
72639;SDS011;60683;51.730;8.762;2023-04-24T08:05:50;3.85;;;1.90;;
72639;SDS011;60683;51.730;8.762;2023-04-24T08:08:19;3.65;;;1.83;;
72639;SDS011;60683;51.730;8.762;2023-04-24T08:10:48;3.40;;;1.73;;
72639;SDS011;60683;51.730;8.762;2023-04-24T08:13:15;5.65;;;1.85;;
72639;SDS011;60683;51.730;8.762;2023-04-24T08:15:43;3.92;;;1.95;;
72639;SDS011;60683;51.730;8.762;2023-04-24T08:18:12;3.47;;;1.52;;
72639;SDS011;60683;51.730;8.762;2023-04-24T08:20:41;3.67;;;1.50;;
72639;SDS011;60683;51.730;8.762;2023-04-24T08:23:09;4.05;;;1.73;;
72639;SDS011;60683;51.730;8.762;2023-04-24T08:25:37;4.10;;;1.73;;
72639;SDS011;60683;51.730;8.762;2023-04-24T08:28:05;4.07;;;1.50;;
72639;SDS011;60683;51.730;8.762;2023-04-24T08:30:33;4.28;;;1.65;;
72639;SDS011;60683;51.730;8.762;2023-04-24T08:33:00;4.07;;;1.70;;
72639;SDS011;60683;51.730;8.762;2023-04-24T08:35:29;3.78;;;1.30;;
72639;SDS011;60683;51.730;8.762;2023-04-24T08:37:56;4.10;;;1.58;;
72639;SDS011;60683;51.730;8.762;2023-04-24T08:40:27;2.70;;;1.13;;
72639;SDS011;60683;51.730;8.762;2023-04-24T08:42:55;3.80;;;1.77;;
72639;SDS011;60683;51.730;8.762;2023-04-24T08:45:23;2.88;;;1.42;;
72639;SDS011;60683;51.730;8.762;2023-04-24T08:47:52;5.55;;;2.22;;
72639;SDS011;60683;51.730;8.762;2023-04-24T08:50:20;2.60;;;1.20;;
72639;SDS011;60683;51.730;8.762;2023-04-24T08:52:49;3.45;;;1.45;;
72639;SDS011;60683;51.730;8.762;2023-04-24T08:55:19;3.80;;;1.95;;
72639;SDS011;60683;51.730;8.762;2023-04-24T08:57:49;4.55;;;1.88;;
72639;SDS011;60683;51.730;8.762;2023-04-24T09:00:19;2.50;;;1.35;;
72639;SDS011;60683;51.730;8.762;2023-04-24T09:02:48;3.15;;;1.52;;
72639;SDS011;60683;51.730;8.762;2023-04-24T09:05:17;3.03;;;1.48;;
72639;SDS011;60683;51.730;8.762;2023-04-24T09:07:45;2.95;;;1.35;;
72639;SDS011;60683;51.730;8.762;2023-04-24T09:10:15;3.15;;;1.42;;
72639;SDS011;60683;51.730;8.762;2023-04-24T09:12:43;2.60;;;0.93;;
72639;SDS011;60683;51.730;8.762;2023-04-24T09:15:11;2.38;;;0.93;;
72639;SDS011;60683;51.730;8.762;2023-04-24T09:17:39;3.22;;;1.23;;
72639;SDS011;60683;51.730;8.762;2023-04-24T09:20:07;3.17;;;1.50;;
72639;SDS011;60683;51.730;8.762;2023-04-24T09:22:35;3.45;;;1.17;;
72639;SDS011;60683;51.730;8.762;2023-04-24T09:25:04;4.43;;;1.42;;
72639;SDS011;60683;51.730;8.762;2023-04-24T09:27:34;2.03;;;1.05;;
72639;SDS011;60683;51.730;8.762;2023-04-24T09:30:03;1.75;;;0.70;;
72639;SDS011;60683;51.730;8.762;2023-04-24T09:32:30;2.42;;;1.20;;
72639;SDS011;60683;51.730;8.762;2023-04-24T09:35:05;2.80;;;0.90;;
72639;SDS011;60683;51.730;8.762;2023-04-24T09:37:34;2.22;;;1.10;;
72639;SDS011;60683;51.730;8.762;2023-04-24T09:40:10;2.25;;;0.98;;
72639;SDS011;60683;51.730;8.762;2023-04-24T09:42:40;1.60;;;0.80;;
72639;SDS011;60683;51.730;8.762;2023-04-24T09:45:11;2.25;;;0.80;;
72639;SDS011;60683;51.730;8.762;2023-04-24T09:47:38;2.25;;;1.17;;
72639;SDS011;60683;51.730;8.762;2023-04-24T09:50:09;1.80;;;0.77;;
72639;SDS011;60683;51.730;8.762;2023-04-24T09:52:41;2.55;;;0.95;;
72639;SDS011;60683;51.730;8.762;2023-04-24T09:55:10;1.35;;;0.75;;
72639;SDS011;60683;51.730;8.762;2023-04-24T09:57:47;1.33;;;1.02;;
72639;SDS011;60683;51.730;8.762;2023-04-24T10:00:21;1.17;;;0.60;;
72639;SDS011;60683;51.730;8.762;2023-04-24T10:02:49;1.50;;;0.60;;
72639;SDS011;60683;51.730;8.762;2023-04-24T10:05:18;1.38;;;0.50;;
72639;SDS011;60683;51.730;8.762;2023-04-24T10:07:46;1.48;;;0.88;;
72639;SDS011;60683;51.730;8.762;2023-04-24T10:10:14;0.55;;;0.20;;
72639;SDS011;60683;51.730;8.762;2023-04-24T10:12:41;1.77;;;0.73;;
72639;SDS011;60683;51.730;8.762;2023-04-24T10:15:11;2.28;;;0.68;;
72639;SDS011;60683;51.730;8.762;2023-04-24T10:17:40;1.00;;;0.50;;
72639;SDS011;60683;51.730;8.762;2023-04-24T10:20:08;1.23;;;0.50;;
72639;SDS011;60683;51.730;8.762;2023-04-24T10:22:36;0.90;;;0.40;;
72639;SDS011;60683;51.730;8.762;2023-04-24T10:25:04;2.28;;;0.20;;
72639;SDS011;60683;51.730;8.762;2023-04-24T10:27:33;0.30;;;0.25;;
72639;SDS011;60683;51.730;8.762;2023-04-24T10:30:01;0.60;;;0.30;;
72639;SDS011;60683;51.730;8.762;2023-04-24T10:32:30;0.93;;;0.60;;
72639;SDS011;60683;51.730;8.762;2023-04-24T10:34:58;1.05;;;0.50;;
72639;SDS011;60683;51.730;8.762;2023-04-24T10:37:25;0.82;;;0.38;;
72639;SDS011;60683;51.730;8.762;2023-04-24T10:39:53;0.70;;;0.35;;
72639;SDS011;60683;51.730;8.762;2023-04-24T10:42:21;0.85;;;0.40;;
72639;SDS011;60683;51.730;8.762;2023-04-24T10:44:49;0.68;;;0.30;;
72639;SDS011;60683;51.730;8.762;2023-04-24T10:47:17;0.15;;;0.10;;
72639;SDS011;60683;51.730;8.762;2023-04-24T10:49:46;2.17;;;1.13;;
72639;SDS011;60683;51.730;8.762;2023-04-24T10:52:18;0.22;;;0.10;;
72639;SDS011;60683;51.730;8.762;2023-04-24T10:54:46;0.60;;;0.38;;
72639;SDS011;60683;51.730;8.762;2023-04-24T10:57:25;0.35;;;0.20;;
72639;SDS011;60683;51.730;8.762;2023-04-24T11:00:10;1.00;;;0.30;;
72639;SDS011;60683;51.730;8.762;2023-04-24T11:02:40;0.50;;;0.30;;
72639;SDS011;60683;51.730;8.762;2023-04-24T11:05:16;2.53;;;0.60;;
72639;SDS011;60683;51.730;8.762;2023-04-24T11:10:40;1.38;;;0.40;;
72639;SDS011;60683;51.730;8.762;2023-04-24T11:13:13;0.73;;;0.43;;
72639;SDS011;60683;51.730;8.762;2023-04-24T11:15:41;2.20;;;0.50;;
72639;SDS011;60683;51.730;8.762;2023-04-24T11:18:12;0.20;;;0.10;;
72639;SDS011;60683;51.730;8.762;2023-04-24T11:20:43;0.73;;;0.35;;
72639;SDS011;60683;51.730;8.762;2023-04-24T11:23:11;0.55;;;0.30;;
72639;SDS011;60683;51.730;8.762;2023-04-24T11:25:40;4.13;;;0.75;;
72639;SDS011;60683;51.730;8.762;2023-04-24T11:28:08;0.77;;;0.45;;
72639;SDS011;60683;51.730;8.762;2023-04-24T11:30:42;1.25;;;0.43;;
72639;SDS011;60683;51.730;8.762;2023-04-24T11:33:09;1.70;;;0.80;;
72639;SDS011;60683;51.730;8.762;2023-04-24T11:35:39;1.77;;;0.90;;
72639;SDS011;60683;51.730;8.762;2023-04-24T11:38:08;1.48;;;0.75;;
72639;SDS011;60683;51.730;8.762;2023-04-24T11:40:37;2.40;;;1.02;;
72639;SDS011;60683;51.730;8.762;2023-04-24T11:43:04;2.80;;;1.05;;
72639;SDS011;60683;51.730;8.762;2023-04-24T11:45:33;2.30;;;1.00;;
72639;SDS011;60683;51.730;8.762;2023-04-24T11:48:02;2.85;;;1.40;;
72639;SDS011;60683;51.730;8.762;2023-04-24T11:50:30;3.00;;;1.30;;
72639;SDS011;60683;51.730;8.762;2023-04-24T11:52:57;2.13;;;1.20;;
72639;SDS011;60683;51.730;8.762;2023-04-24T11:55:28;2.92;;;1.23;;
72639;SDS011;60683;51.730;8.762;2023-04-24T11:57:56;3.53;;;1.60;;
72639;SDS011;60683;51.730;8.762;2023-04-24T12:00:25;3.28;;;1.48;;
72639;SDS011;60683;51.730;8.762;2023-04-24T12:03:03;2.33;;;1.05;;
72639;SDS011;60683;51.730;8.762;2023-04-24T12:05:32;3.50;;;1.45;;
72639;SDS011;60683;51.730;8.762;2023-04-24T12:08:00;2.85;;;1.20;;
72639;SDS011;60683;51.730;8.762;2023-04-24T12:10:29;3.65;;;1.50;;
72639;SDS011;60683;51.730;8.762;2023-04-24T12:12:58;3.20;;;1.42;;
72639;SDS011;60683;51.730;8.762;2023-04-24T12:15:27;3.25;;;0.82;;
72639;SDS011;60683;51.730;8.762;2023-04-24T12:17:55;1.67;;;0.90;;
72639;SDS011;60683;51.730;8.762;2023-04-24T12:20:24;2.58;;;1.00;;
72639;SDS011;60683;51.730;8.762;2023-04-24T12:22:54;2.53;;;1.08;;
72639;SDS011;60683;51.730;8.762;2023-04-24T12:25:23;5.10;;;1.17;;
72639;SDS011;60683;51.730;8.762;2023-04-24T12:27:57;2.58;;;1.13;;
72639;SDS011;60683;51.730;8.762;2023-04-24T12:30:39;2.33;;;0.98;;
72639;SDS011;60683;51.730;8.762;2023-04-24T12:33:08;4.50;;;1.58;;
72639;SDS011;60683;51.730;8.762;2023-04-24T12:35:36;3.15;;;1.13;;
72639;SDS011;60683;51.730;8.762;2023-04-24T12:38:06;3.08;;;1.35;;
72639;SDS011;60683;51.730;8.762;2023-04-24T12:40:34;1.65;;;0.80;;
72639;SDS011;60683;51.730;8.762;2023-04-24T12:43:12;2.70;;;1.08;;
72639;SDS011;60683;51.730;8.762;2023-04-24T12:45:40;2.20;;;0.73;;
72639;SDS011;60683;51.730;8.762;2023-04-24T12:48:08;3.28;;;1.52;;
72639;SDS011;60683;51.730;8.762;2023-04-24T12:50:35;5.00;;;1.80;;
72639;SDS011;60683;51.730;8.762;2023-04-24T12:53:03;5.07;;;2.00;;
72639;SDS011;60683;51.730;8.762;2023-04-24T12:55:31;4.30;;;1.70;;
72639;SDS011;60683;51.730;8.762;2023-04-24T12:57:58;2.85;;;1.52;;
72639;SDS011;60683;51.730;8.762;2023-04-24T13:00:28;3.80;;;1.73;;
72639;SDS011;60683;51.730;8.762;2023-04-24T13:02:55;5.28;;;1.98;;
72639;SDS011;60683;51.730;8.762;2023-04-24T13:05:24;4.35;;;2.03;;
72639;SDS011;60683;51.730;8.762;2023-04-24T13:07:51;4.75;;;1.95;;
72639;SDS011;60683;51.730;8.762;2023-04-24T13:10:19;4.60;;;2.35;;
72639;SDS011;60683;51.730;8.762;2023-04-24T13:12:46;5.07;;;1.85;;
72639;SDS011;60683;51.730;8.762;2023-04-24T13:15:14;3.38;;;1.35;;
72639;SDS011;60683;51.730;8.762;2023-04-24T13:17:43;6.35;;;2.83;;
72639;SDS011;60683;51.730;8.762;2023-04-24T13:20:11;6.00;;;2.08;;
72639;SDS011;60683;51.730;8.762;2023-04-24T13:22:39;7.07;;;2.13;;
72639;SDS011;60683;51.730;8.762;2023-04-24T13:25:07;7.75;;;3.30;;
72639;SDS011;60683;51.730;8.762;2023-04-24T13:27:35;5.47;;;2.22;;
72639;SDS011;60683;51.730;8.762;2023-04-24T13:30:03;5.15;;;2.17;;
72639;SDS011;60683;51.730;8.762;2023-04-24T13:32:30;7.38;;;2.72;;
72639;SDS011;60683;51.730;8.762;2023-04-24T13:35:01;15.20;;;3.10;;
72639;SDS011;60683;51.730;8.762;2023-04-24T13:37:28;5.07;;;1.83;;
72639;SDS011;60683;51.730;8.762;2023-04-24T13:39:56;4.47;;;2.00;;
72639;SDS011;60683;51.730;8.762;2023-04-24T13:42:23;6.30;;;2.70;;
72639;SDS011;60683;51.730;8.762;2023-04-24T13:44:51;6.15;;;2.90;;
72639;SDS011;60683;51.730;8.762;2023-04-24T13:47:19;7.50;;;2.50;;
72639;SDS011;60683;51.730;8.762;2023-04-24T13:49:47;7.38;;;2.63;;
72639;SDS011;60683;51.730;8.762;2023-04-24T13:52:16;7.20;;;3.25;;
72639;SDS011;60683;51.730;8.762;2023-04-24T13:54:45;9.50;;;2.88;;
72639;SDS011;60683;51.730;8.762;2023-04-24T13:57:13;7.38;;;3.78;;
72639;SDS011;60683;51.730;8.762;2023-04-24T13:59:41;9.77;;;3.50;;
72639;SDS011;60683;51.730;8.762;2023-04-24T14:02:08;7.30;;;3.20;;
72639;SDS011;60683;51.730;8.762;2023-04-24T14:04:36;4.45;;;2.63;;
72639;SDS011;60683;51.730;8.762;2023-04-24T14:07:04;8.35;;;3.15;;
72639;SDS011;60683;51.730;8.762;2023-04-24T14:09:33;8.07;;;3.60;;
72639;SDS011;60683;51.730;8.762;2023-04-24T14:12:00;8.10;;;3.67;;
72639;SDS011;60683;51.730;8.762;2023-04-24T14:14:29;12.80;;;3.85;;
72639;SDS011;60683;51.730;8.762;2023-04-24T14:16:57;10.77;;;5.40;;
72639;SDS011;60683;51.730;8.762;2023-04-24T14:19:25;8.35;;;4.25;;
72639;SDS011;60683;51.730;8.762;2023-04-24T14:21:52;10.82;;;4.35;;
72639;SDS011;60683;51.730;8.762;2023-04-24T14:24:21;10.73;;;5.38;;
72639;SDS011;60683;51.730;8.762;2023-04-24T14:26:50;9.55;;;4.85;;
72639;SDS011;60683;51.730;8.762;2023-04-24T14:29:18;11.82;;;5.70;;
72639;SDS011;60683;51.730;8.762;2023-04-24T14:31:45;10.00;;;4.40;;
72639;SDS011;60683;51.730;8.762;2023-04-24T14:34:13;10.00;;;4.35;;
72639;SDS011;60683;51.730;8.762;2023-04-24T14:36:41;13.63;;;4.95;;
72639;SDS011;60683;51.730;8.762;2023-04-24T14:39:09;10.75;;;5.78;;
72639;SDS011;60683;51.730;8.762;2023-04-24T14:41:37;8.90;;;4.30;;
72639;SDS011;60683;51.730;8.762;2023-04-24T14:44:06;6.70;;;3.22;;
72639;SDS011;60683;51.730;8.762;2023-04-24T14:46:34;8.93;;;3.60;;
72639;SDS011;60683;51.730;8.762;2023-04-24T14:49:01;6.82;;;3.72;;
72639;SDS011;60683;51.730;8.762;2023-04-24T14:51:29;6.75;;;3.00;;
72639;SDS011;60683;51.730;8.762;2023-04-24T14:53:57;4.82;;;2.67;;
72639;SDS011;60683;51.730;8.762;2023-04-24T14:56:25;6.63;;;2.60;;
72639;SDS011;60683;51.730;8.762;2023-04-24T14:58:53;3.40;;;1.73;;